Time;durP1;ratioP1;P1;durP2;ratioP2;P2;SDS_P1;SDS_P2;PMS_P1;PMS_P2;Temp;Humidity;BMP_temperature;BMP_pressure;BME280_temperature;BME280_humidity;BME280_pressure;Samples;Min_cycle;Max_cycle;Signal;HPM_P1;HPM_P2
2021/09/01 00:01:57;;;;;;;22.97;10.30;;;;;;;;;;5030963;28;20028;-82
2021/09/01 00:04:22;;;;;;;25.67;10.95;;;;;;;;;;5032602;28;20294;-83
2021/09/01 00:06:47;;;;;;;34.90;11.43;;;;;;;;;;5032847;28;20036;-84
2021/09/01 00:09:13;;;;;;;32.93;12.90;;;;;;;;;;5029982;28;20026;-83
2021/09/01 00:11:38;;;;;;;30.63;11.52;;;;;;;;;;5034953;28;20019;-83
2021/09/01 00:14:03;;;;;;;24.92;10.75;;;;;;;;;;5033922;28;20096;-83
2021/09/01 00:16:30;;;;;;;28.63;10.38;;;;;;;;;;5031817;28;20045;-83
2021/09/01 00:18:57;;;;;;;32.42;10.65;;;;;;;;;;5031405;28;20160;-83
2021/09/01 00:21:22;;;;;;;37.22;13.88;;;;;;;;;;5029695;28;20389;-83
2021/09/01 00:23:47;;;;;;;27.27;10.48;;;;;;;;;;5033931;28;20029;-84
2021/09/01 00:26:13;;;;;;;28.20;11.60;;;;;;;;;;5038087;28;20029;-84
2021/09/01 00:28:38;;;;;;;27.23;10.20;;;;;;;;;;5036229;28;20381;-83
2021/09/01 00:31:03;;;;;;;27.80;11.60;;;;;;;;;;5035417;28;20028;-84
2021/09/01 00:33:29;;;;;;;47.10;14.15;;;;;;;;;;5032407;28;20041;-83
2021/09/01 00:35:54;;;;;;;27.98;12.98;;;;;;;;;;5033127;28;20025;-83
2021/09/01 00:38:22;;;;;;;31.23;14.10;;;;;;;;;;5030775;28;20029;-83
2021/09/01 00:40:47;;;;;;;27.92;12.40;;;;;;;;;;5031484;28;20021;-83
2021/09/01 00:43:12;;;;;;;30.00;13.10;;;;;;;;;;5029240;28;20466;-83
2021/09/01 00:45:43;;;;;;;27.20;12.07;;;;;;;;;;5030828;28;20264;-83
2021/09/01 00:48:08;;;;;;;28.85;13.38;;;;;;;;;;5031347;28;20312;-83
2021/09/01 00:50:33;;;;;;;29.17;13.23;;;;;;;;;;5031984;28;20484;-84
2021/09/01 00:52:58;;;;;;;33.30;14.30;;;;;;;;;;5034588;28;20022;-83
2021/09/01 00:55:23;;;;;;;33.60;12.30;;;;;;;;;;5034746;28;20469;-83
2021/09/01 00:57:49;;;;;;;24.42;12.52;;;;;;;;;;5033612;28;20056;-83
2021/09/01 01:00:22;;;;;;;32.70;14.13;;;;;;;;;;5039045;28;20466;-83
2021/09/01 01:02:47;;;;;;;31.45;14.50;;;;;;;;;;5036603;28;20028;-83
2021/09/01 01:05:13;;;;;;;29.97;14.27;;;;;;;;;;5036760;28;20017;-83
2021/09/01 01:07:39;;;;;;;28.85;14.30;;;;;;;;;;5038081;28;20112;-84
2021/09/01 01:10:04;;;;;;;31.27;15.95;;;;;;;;;;5036473;28;20083;-83
2021/09/01 01:12:29;;;;;;;33.63;14.50;;;;;;;;;;5037683;28;20040;-83
2021/09/01 01:14:55;;;;;;;29.02;16.77;;;;;;;;;;5034514;28;20068;-84
2021/09/01 01:17:22;;;;;;;29.40;15.20;;;;;;;;;;5033310;28;20136;-83
2021/09/01 01:19:48;;;;;;;32.30;17.02;;;;;;;;;;5035372;28;20252;-83
2021/09/01 01:22:14;;;;;;;35.58;16.85;;;;;;;;;;5034828;28;20026;-83
2021/09/01 01:24:55;;;;;;;32.40;17.83;;;;;;;;;;5032729;28;20025;-83
2021/09/01 01:27:29;;;;;;;29.77;17.17;;;;;;;;;;5033579;28;20049;-83
2021/09/01 01:29:56;;;;;;;26.60;16.50;;;;;;;;;;5031679;28;20032;-83
2021/09/01 01:32:21;;;;;;;31.65;16.92;;;;;;;;;;5031907;28;20065;-83
2021/09/01 01:34:46;;;;;;;26.70;15.73;;;;;;;;;;5033136;28;20493;-84
2021/09/01 01:37:11;;;;;;;29.73;13.97;;;;;;;;;;5038508;28;20275;-84
2021/09/01 01:39:37;;;;;;;29.47;17.43;;;;;;;;;;5040367;28;20256;-84
2021/09/01 01:42:02;;;;;;;30.00;16.67;;;;;;;;;;5038546;28;20268;-83
2021/09/01 01:44:27;;;;;;;28.60;17.15;;;;;;;;;;5035872;28;20263;-83
2021/09/01 01:46:52;;;;;;;28.10;17.13;;;;;;;;;;5033595;28;20060;-83
2021/09/01 01:49:20;;;;;;;34.63;18.30;;;;;;;;;;5034899;28;20627;-84
2021/09/01 01:51:49;;;;;;;40.08;17.48;;;;;;;;;;5036507;28;20029;-83
2021/09/01 01:54:14;;;;;;;37.58;19.27;;;;;;;;;;5033459;28;20656;-84
2021/09/01 01:56:39;;;;;;;28.45;16.25;;;;;;;;;;5032709;28;20072;-83
2021/09/01 01:59:04;;;;;;;37.17;16.80;;;;;;;;;;5033568;28;20092;-83
2021/09/01 02:01:29;;;;;;;24.67;17.00;;;;;;;;;;5032819;28;20267;-83
2021/09/01 02:03:55;;;;;;;26.40;16.55;;;;;;;;;;5035070;28;20268;-83
2021/09/01 02:06:20;;;;;;;34.03;19.67;;;;;;;;;;5038573;28;20044;-83
2021/09/01 02:08:45;;;;;;;22.07;15.30;;;;;;;;;;5037168;28;20383;-83
2021/09/01 02:11:10;;;;;;;28.97;16.20;;;;;;;;;;5036447;28;20033;-83
2021/09/01 02:13:35;;;;;;;34.13;19.43;;;;;;;;;;5036372;28;20263;-84
2021/09/01 02:16:00;;;;;;;23.13;14.70;;;;;;;;;;5034387;28;20187;-83
2021/09/01 02:18:26;;;;;;;24.03;15.93;;;;;;;;;;5031988;28;20036;-84
2021/09/01 02:20:51;;;;;;;20.43;14.07;;;;;;;;;;5033615;28;20034;-83
2021/09/01 02:23:16;;;;;;;19.93;13.17;;;;;;;;;;5031544;28;20264;-84
2021/09/01 02:25:41;;;;;;;15.63;12.67;;;;;;;;;;5035131;28;20032;-84
2021/09/01 02:28:06;;;;;;;24.87;14.83;;;;;;;;;;5033928;28;20294;-83
2021/09/01 02:30:32;;;;;;;20.98;15.32;;;;;;;;;;5031237;28;20257;-83
2021/09/01 02:32:57;;;;;;;24.77;15.33;;;;;;;;;;5033073;28;20043;-84
2021/09/01 02:35:22;;;;;;;24.57;15.00;;;;;;;;;;5036819;28;20256;-84
2021/09/01 02:37:52;;;;;;;18.70;13.03;;;;;;;;;;5037656;28;20024;-84
2021/09/01 02:40:17;;;;;;;19.90;13.27;;;;;;;;;;5034353;28;20640;-84
2021/09/01 02:42:42;;;;;;;14.07;10.40;;;;;;;;;;5035359;28;20036;-83
2021/09/01 02:45:08;;;;;;;14.13;11.30;;;;;;;;;;5034619;28;20021;-84
2021/09/01 02:47:33;;;;;;;19.95;13.20;;;;;;;;;;5033671;28;20256;-83
2021/09/01 02:49:58;;;;;;;18.03;11.97;;;;;;;;;;5032607;28;20053;-83
2021/09/01 02:52:23;;;;;;;17.27;10.97;;;;;;;;;;5032588;28;20315;-83
2021/09/01 02:54:48;;;;;;;18.43;12.57;;;;;;;;;;5032231;28;20349;-84
2021/09/01 02:57:13;;;;;;;13.67;10.70;;;;;;;;;;5031423;28;20025;-83
2021/09/01 02:59:39;;;;;;;12.90;10.23;;;;;;;;;;5033577;28;20449;-83
2021/09/01 03:02:04;;;;;;;13.00;10.40;;;;;;;;;;5032343;28;20278;-84
2021/09/01 03:04:29;;;;;;;11.20;10.05;;;;;;;;;;5040132;28;20017;-84
2021/09/01 03:06:54;;;;;;;12.93;8.97;;;;;;;;;;5036674;28;20074;-84
2021/09/01 03:09:19;;;;;;;11.45;9.90;;;;;;;;;;5036704;28;20909;-84
2021/09/01 03:11:44;;;;;;;13.47;10.47;;;;;;;;;;5035475;28;20488;-84
2021/09/01 03:14:10;;;;;;;11.13;9.77;;;;;;;;;;5033472;28;20017;-84
2021/09/01 03:16:35;;;;;;;14.50;9.63;;;;;;;;;;5031075;28;20037;-84
2021/09/01 03:19:00;;;;;;;14.80;11.23;;;;;;;;;;5032712;28;20428;-83
2021/09/01 03:21:25;;;;;;;17.17;10.33;;;;;;;;;;5032428;28;20264;-84
2021/09/01 03:23:50;;;;;;;22.87;8.57;;;;;;;;;;5032279;28;20075;-83
2021/09/01 03:26:16;;;;;;;12.32;8.73;;;;;;;;;;5031389;28;20064;-83
2021/09/01 03:28:41;;;;;;;30.38;12.65;;;;;;;;;;5029385;28;20440;-83
2021/09/01 03:31:06;;;;;;;20.67;14.10;;;;;;;;;;5029684;28;20104;-84
2021/09/01 03:33:32;;;;;;;22.55;11.93;;;;;;;;;;5031676;28;20021;-83
2021/09/01 03:35:57;;;;;;;12.52;9.35;;;;;;;;;;5034670;28;20021;-84
2021/09/01 03:38:22;;;;;;;23.93;12.07;;;;;;;;;;5035194;28;20029;-84
2021/09/01 03:40:47;;;;;;;10.83;8.70;;;;;;;;;;5037722;28;20261;-83
2021/09/01 03:43:13;;;;;;;10.70;9.60;;;;;;;;;;5036968;28;20263;-84
2021/09/01 03:45:38;;;;;;;11.15;9.90;;;;;;;;;;5035525;28;20032;-84
2021/09/01 03:48:03;;;;;;;11.55;10.45;;;;;;;;;;5034465;28;20440;-84
2021/09/01 03:50:29;;;;;;;14.10;12.70;;;;;;;;;;5032097;28;20040;-84
2021/09/01 03:52:54;;;;;;;16.30;11.33;;;;;;;;;;5031073;28;20774;-84
2021/09/01 03:55:19;;;;;;;12.27;11.03;;;;;;;;;;5031444;28;20272;-84
2021/09/01 03:57:44;;;;;;;13.50;12.10;;;;;;;;;;5031567;28;20018;-83
2021/09/01 04:00:10;;;;;;;12.93;10.57;;;;;;;;;;5029393;28;21139;-84
2021/09/01 04:02:35;;;;;;;12.48;10.40;;;;;;;;;;5031105;28;20017;-84
2021/09/01 04:05:00;;;;;;;10.43;9.35;;;;;;;;;;5028878;28;20083;-84
2021/09/01 04:07:25;;;;;;;11.60;10.13;;;;;;;;;;5030349;28;20044;-83
2021/09/01 04:09:51;;;;;;;14.07;10.93;;;;;;;;;;5030322;28;20033;-83
2021/09/01 04:12:16;;;;;;;13.83;10.97;;;;;;;;;;5030443;28;20252;-83
2021/09/01 04:14:41;;;;;;;12.32;11.05;;;;;;;;;;5035541;28;21066;-84
2021/09/01 04:17:06;;;;;;;12.67;11.17;;;;;;;;;;5036163;28;20061;-84
2021/09/01 04:19:32;;;;;;;13.63;11.47;;;;;;;;;;5036417;28;20263;-84
2021/09/01 04:21:57;;;;;;;14.75;11.50;;;;;;;;;;5035686;28;20482;-84
2021/09/01 04:24:22;;;;;;;12.83;11.53;;;;;;;;;;5034111;28;20032;-84
2021/09/01 04:26:47;;;;;;;12.20;9.85;;;;;;;;;;5036078;28;20037;-83
2021/09/01 04:29:13;;;;;;;15.23;12.70;;;;;;;;;;5036364;28;20021;-84
2021/09/01 04:31:38;;;;;;;12.17;10.90;;;;;;;;;;5036115;28;20100;-84
2021/09/01 04:34:03;;;;;;;14.67;12.53;;;;;;;;;;5035767;28;20261;-84
2021/09/01 04:36:28;;;;;;;17.65;14.57;;;;;;;;;;5035287;28;20260;-83
2021/09/01 04:38:54;;;;;;;11.70;10.57;;;;;;;;;;5034753;28;20108;-83
2021/09/01 04:41:19;;;;;;;14.32;11.95;;;;;;;;;;5034835;28;20260;-83
2021/09/01 04:43:44;;;;;;;18.70;12.70;;;;;;;;;;5034088;28;20067;-83
2021/09/01 04:46:09;;;;;;;12.50;11.13;;;;;;;;;;5036909;28;20029;-84
2021/09/01 04:48:35;;;;;;;11.83;10.63;;;;;;;;;;5038900;28;20129;-84
2021/09/01 04:51:00;;;;;;;12.50;11.20;;;;;;;;;;5040454;28;20264;-84
2021/09/01 04:53:25;;;;;;;13.53;11.67;;;;;;;;;;5039396;28;20044;-84
2021/09/01 04:55:50;;;;;;;12.47;11.27;;;;;;;;;;5038537;28;20257;-84
2021/09/01 04:58:15;;;;;;;18.67;14.43;;;;;;;;;;5036781;28;20275;-84
2021/09/01 05:00:41;;;;;;;17.67;12.43;;;;;;;;;;5037820;28;20275;-84
2021/09/01 05:03:06;;;;;;;14.60;13.07;;;;;;;;;;5037467;28;20263;-84
2021/09/01 05:05:31;;;;;;;18.92;14.35;;;;;;;;;;5035464;28;20060;-84
2021/09/01 05:07:56;;;;;;;18.27;13.63;;;;;;;;;;5037964;28;20025;-84
2021/09/01 05:10:22;;;;;;;17.10;13.57;;;;;;;;;;5037003;28;20512;-84
2021/09/01 05:12:48;;;;;;;21.27;15.65;;;;;;;;;;5034557;28;20310;-84
2021/09/01 05:15:13;;;;;;;17.42;12.98;;;;;;;;;;5035596;28;20022;-83
2021/09/01 05:17:38;;;;;;;15.10;11.97;;;;;;;;;;5033200;28;20036;-83
2021/09/01 05:20:04;;;;;;;17.57;13.40;;;;;;;;;;5034262;28;20260;-83
2021/09/01 05:22:30;;;;;;;18.25;13.32;;;;;;;;;;5038755;28;20257;-84
2021/09/01 05:25:06;;;;;;;15.63;10.48;;;;;;;;;;5038406;28;20686;-84
2021/09/01 05:27:32;;;;;;;13.00;11.10;;;;;;;;;;5037671;28;20310;-84
2021/09/01 05:29:57;;;;;;;16.83;13.20;;;;;;;;;;5037314;28;20493;-84
2021/09/01 05:32:24;;;;;;;17.83;13.55;;;;;;;;;;5036485;28;20049;-84
2021/09/01 05:34:50;;;;;;;17.80;14.13;;;;;;;;;;5035885;28;20021;-84
2021/09/01 05:37:16;;;;;;;16.88;14.38;;;;;;;;;;5033248;28;20094;-84
2021/09/01 05:39:42;;;;;;;13.80;12.02;;;;;;;;;;5034379;28;20033;-84
2021/09/01 05:42:08;;;;;;;14.40;10.10;;;;;;;;;;5035597;28;20032;-84
2021/09/01 05:44:34;;;;;;;16.75;13.18;;;;;;;;;;5034613;28;20822;-84
2021/09/01 05:47:00;;;;;;;14.18;12.73;;;;;;;;;;5033863;28;20068;-83
2021/09/01 05:49:25;;;;;;;12.32;10.95;;;;;;;;;;5033631;28;20021;-83
2021/09/01 05:51:50;;;;;;;14.43;12.83;;;;;;;;;;5036618;28;20025;-84
2021/09/01 05:54:15;;;;;;;17.13;14.70;;;;;;;;;;5039003;28;20290;-84
2021/09/01 05:56:43;;;;;;;15.65;12.65;;;;;;;;;;5036587;28;20025;-84
2021/09/01 05:59:09;;;;;;;18.52;14.15;;;;;;;;;;5035594;28;20043;-84
2021/09/01 06:01:38;;;;;;;14.30;12.50;;;;;;;;;;5034381;28;20029;-84
2021/09/01 06:04:05;;;;;;;14.55;11.38;;;;;;;;;;5034588;28;20112;-84
2021/09/01 06:06:30;;;;;;;14.85;12.68;;;;;;;;;;5034058;28;20032;-84
2021/09/01 06:09:00;;;;;;;11.37;9.60;;;;;;;;;;5033326;28;20029;-84
2021/09/01 06:11:26;;;;;;;16.75;11.32;;;;;;;;;;5032848;28;20735;-83
2021/09/01 06:13:52;;;;;;;11.70;9.82;;;;;;;;;;5032364;28;20026;-84
2021/09/01 06:16:17;;;;;;;11.90;10.27;;;;;;;;;;5032153;28;20053;-83
2021/09/01 06:18:42;;;;;;;11.63;10.43;;;;;;;;;;5033192;28;20256;-84
2021/09/01 06:21:07;;;;;;;9.83;8.83;;;;;;;;;;5035640;28;20108;-84
2021/09/01 06:23:33;;;;;;;11.43;10.32;;;;;;;;;;5036680;28;20260;-84
2021/09/01 06:25:59;;;;;;;13.40;11.40;;;;;;;;;;5036475;28;20025;-84
2021/09/01 06:28:24;;;;;;;11.15;9.35;;;;;;;;;;5037085;28;20465;-84
2021/09/01 06:30:49;;;;;;;12.48;10.80;;;;;;;;;;5034103;28;20473;-84
2021/09/01 06:33:14;;;;;;;13.13;11.63;;;;;;;;;;5032749;28;20025;-84
2021/09/01 06:35:40;;;;;;;12.30;11.00;;;;;;;;;;5031830;28;20255;-83
2021/09/01 06:38:07;;;;;;;13.57;12.18;;;;;;;;;;5032081;28;20078;-84
2021/09/01 06:40:33;;;;;;;13.05;11.73;;;;;;;;;;5031737;28;20018;-84
2021/09/01 06:42:58;;;;;;;11.43;9.82;;;;;;;;;;5030270;28;20018;-84
2021/09/01 06:45:24;;;;;;;12.17;10.93;;;;;;;;;;5031485;28;20389;-84
2021/09/01 06:47:50;;;;;;;11.85;10.23;;;;;;;;;;5029705;28;20264;-83
2021/09/01 06:50:17;;;;;;;12.18;10.93;;;;;;;;;;5029978;28;20404;-84
2021/09/01 06:52:42;;;;;;;11.60;10.40;;;;;;;;;;5031207;28;20021;-84
2021/09/01 06:55:08;;;;;;;14.32;11.70;;;;;;;;;;5034926;28;20101;-84
2021/09/01 06:57:34;;;;;;;11.60;10.40;;;;;;;;;;5033889;28;20021;-84
2021/09/01 06:59:59;;;;;;;13.45;9.98;;;;;;;;;;5032978;28;20026;-84
2021/09/01 07:02:24;;;;;;;11.27;10.10;;;;;;;;;;5033255;28;20025;-84
2021/09/01 07:04:50;;;;;;;11.70;10.52;;;;;;;;;;5032465;28;20056;-83
2021/09/01 07:07:15;;;;;;;15.00;12.33;;;;;;;;;;5031715;28;20543;-84
2021/09/01 07:09:40;;;;;;;10.57;9.57;;;;;;;;;;5031448;28;20283;-83
2021/09/01 07:12:05;;;;;;;10.77;9.63;;;;;;;;;;5031571;28;20311;-83
2021/09/01 07:14:30;;;;;;;12.40;9.30;;;;;;;;;;5029785;28;20082;-83
2021/09/01 07:16:56;;;;;;;10.03;9.10;;;;;;;;;;5030863;28;20466;-83
2021/09/01 07:19:21;;;;;;;9.73;8.73;;;;;;;;;;5032192;28;20286;-84
2021/09/01 07:21:46;;;;;;;11.33;7.77;;;;;;;;;;5038374;28;20260;-84
2021/09/01 07:24:11;;;;;;;10.07;9.03;;;;;;;;;;5036482;28;20477;-84
2021/09/01 07:26:36;;;;;;;9.40;8.10;;;;;;;;;;5035485;28;20264;-83
2021/09/01 07:29:02;;;;;;;13.57;8.17;;;;;;;;;;5032621;28;20025;-84
2021/09/01 07:31:30;;;;;;;9.88;8.68;;;;;;;;;;5033534;28;20259;-83
2021/09/01 07:33:55;;;;;;;9.35;8.45;;;;;;;;;;5031488;28;20028;-84
2021/09/01 07:36:21;;;;;;;7.82;7.13;;;;;;;;;;5032808;28;20029;-84
2021/09/01 07:38:46;;;;;;;10.70;7.63;;;;;;;;;;5030292;28;20128;-84
2021/09/01 07:41:11;;;;;;;8.83;8.00;;;;;;;;;;5029700;28;20076;-84
2021/09/01 07:43:36;;;;;;;8.10;7.37;;;;;;;;;;5028882;28;20295;-84
2021/09/01 07:46:01;;;;;;;11.57;8.07;;;;;;;;;;5030753;28;20503;-84
2021/09/01 07:48:27;;;;;;;9.32;7.57;;;;;;;;;;5028899;28;20287;-84
2021/09/01 07:50:52;;;;;;;7.97;7.17;;;;;;;;;;5030686;28;20497;-84
2021/09/01 07:53:17;;;;;;;9.32;8.45;;;;;;;;;;5030798;28;20732;-83
2021/09/01 07:55:43;;;;;;;9.48;8.50;;;;;;;;;;5030467;28;20017;-84
2021/09/01 07:58:08;;;;;;;10.65;8.30;;;;;;;;;;5028826;28;20520;-84
2021/09/01 08:00:33;;;;;;;8.85;7.80;;;;;;;;;;5030096;28;20024;-84
2021/09/01 08:02:58;;;;;;;8.73;7.60;;;;;;;;;;5035898;28;20021;-84
2021/09/01 08:05:24;;;;;;;9.82;7.55;;;;;;;;;;5034698;28;20386;-84
2021/09/01 08:07:49;;;;;;;13.27;7.97;;;;;;;;;;5034896;28;20068;-84
2021/09/01 08:10:15;;;;;;;8.63;7.80;;;;;;;;;;5036558;28;20036;-84
2021/09/01 08:12:40;;;;;;;9.00;7.93;;;;;;;;;;5037031;28;20021;-84
2021/09/01 08:15:07;;;;;;;9.00;8.07;;;;;;;;;;5035341;28;20105;-83
2021/09/01 08:17:32;;;;;;;9.43;7.90;;;;;;;;;;5035813;28;20413;-84
2021/09/01 08:19:57;;;;;;;9.10;8.23;;;;;;;;;;5035411;28;20032;-84
2021/09/01 08:22:22;;;;;;;10.55;8.48;;;;;;;;;;5033127;28;20276;-84
2021/09/01 08:24:47;;;;;;;9.30;7.53;;;;;;;;;;5034682;28;20456;-84
2021/09/01 08:27:13;;;;;;;9.07;8.17;;;;;;;;;;5036446;28;20037;-84
2021/09/01 08:29:38;;;;;;;9.38;8.35;;;;;;;;;;5036128;28;20307;-83
2021/09/01 08:32:04;;;;;;;8.70;7.88;;;;;;;;;;5034919;28;20052;-84
2021/09/01 08:34:29;;;;;;;9.52;8.63;;;;;;;;;;5034408;28;20025;-83
2021/09/01 08:36:54;;;;;;;8.93;8.13;;;;;;;;;;5033921;28;20025;-84
2021/09/01 08:39:20;;;;;;;8.90;8.00;;;;;;;;;;5034733;28;20033;-84
2021/09/01 08:41:45;;;;;;;8.95;8.02;;;;;;;;;;5034777;28;20025;-84
2021/09/01 08:44:11;;;;;;;9.30;8.45;;;;;;;;;;5033912;28;20385;-84
2021/09/01 08:46:37;;;;;;;10.30;7.80;;;;;;;;;;5037603;28;20053;-84
2021/09/01 08:49:03;;;;;;;8.57;7.78;;;;;;;;;;5039279;28;20021;-84
2021/09/01 08:51:29;;;;;;;8.50;7.63;;;;;;;;;;5037602;28;20025;-83
2021/09/01 08:53:56;;;;;;;9.68;7.63;;;;;;;;;;5039076;28;20457;-83
2021/09/01 08:56:21;;;;;;;9.07;7.55;;;;;;;;;;5039625;28;20017;-83
2021/09/01 08:58:46;;;;;;;11.93;8.10;;;;;;;;;;5038884;28;20104;-83
2021/09/01 09:01:41;;;;;;;12.33;7.70;;;;;;;;;;5037972;28;20029;-87
2021/09/01 09:04:07;;;;;;;7.78;6.97;;;;;;;;;;5034002;28;20084;-84
2021/09/01 09:06:48;;;;;;;9.25;7.40;;;;;;;;;;5035607;28;20033;-83
2021/09/01 09:09:14;;;;;;;10.45;8.32;;;;;;;;;;5034233;28;20059;-83
2021/09/01 09:11:40;;;;;;;10.55;8.43;;;;;;;;;;5033337;28;20540;-83
2021/09/01 09:14:19;;;;;;;9.18;7.53;;;;;;;;;;5032209;28;20048;-83
2021/09/01 09:16:44;;;;;;;12.93;6.72;;;;;;;;;;5033140;28;20171;-82
2021/09/01 09:19:10;;;;;;;9.05;6.90;;;;;;;;;;5033319;28;20076;-82
2021/09/01 09:21:35;;;;;;;9.15;7.90;;;;;;;;;;5031169;28;20032;-82
2021/09/01 09:24:16;;;;;;;9.63;8.63;;;;;;;;;;5032748;28;20478;-83
2021/09/01 09:26:43;;;;;;;10.60;7.97;;;;;;;;;;5035681;28;20025;-84
2021/09/01 09:29:15;;;;;;;12.27;7.90;;;;;;;;;;5037260;28;20022;-83
2021/09/01 09:31:41;;;;;;;9.13;7.13;;;;;;;;;;5037006;28;20052;-83
2021/09/01 09:34:07;;;;;;;8.57;7.32;;;;;;;;;;5032567;28;20732;-82
2021/09/01 09:36:33;;;;;;;11.48;7.60;;;;;;;;;;5034563;28;20028;-82
2021/09/01 09:38:58;;;;;;;9.60;8.45;;;;;;;;;;5033255;28;20029;-82
2021/09/01 09:41:25;;;;;;;8.30;7.28;;;;;;;;;;5033219;28;20108;-82
2021/09/01 09:43:54;;;;;;;8.02;7.25;;;;;;;;;;5032904;28;20104;-82
2021/09/01 09:46:19;;;;;;;11.18;7.38;;;;;;;;;;5032870;28;20124;-82
2021/09/01 09:48:45;;;;;;;8.80;7.40;;;;;;;;;;5031160;28;20108;-82
2021/09/01 09:51:14;;;;;;;10.02;7.40;;;;;;;;;;5032592;28;20017;-82
2021/09/01 09:53:39;;;;;;;10.15;7.35;;;;;;;;;;5032666;28;20068;-82
2021/09/01 09:56:06;;;;;;;9.00;7.07;;;;;;;;;;5032478;28;20022;-82
2021/09/01 09:58:34;;;;;;;7.53;6.82;;;;;;;;;;5032139;28;20275;-82
2021/09/01 10:01:02;;;;;;;8.35;7.40;;;;;;;;;;5032013;28;20053;-82
2021/09/01 10:03:28;;;;;;;9.13;7.60;;;;;;;;;;5031524;28;20029;-82
2021/09/01 10:05:53;;;;;;;8.40;6.88;;;;;;;;;;5036121;28;20085;-84
2021/09/01 10:08:18;;;;;;;12.37;7.30;;;;;;;;;;5039376;28;20088;-84
2021/09/01 10:10:43;;;;;;;8.27;7.28;;;;;;;;;;5037103;28;20328;-83
2021/09/01 10:13:10;;;;;;;8.18;6.97;;;;;;;;;;5035951;28;20045;-84
2021/09/01 10:15:39;;;;;;;9.05;7.07;;;;;;;;;;5035051;28;20081;-84
2021/09/01 10:18:06;;;;;;;12.77;7.32;;;;;;;;;;5034844;28;20029;-83
2021/09/01 10:20:32;;;;;;;7.95;7.15;;;;;;;;;;5033337;28;20029;-84
2021/09/01 10:23:01;;;;;;;9.23;8.00;;;;;;;;;;5030787;28;20504;-83
2021/09/01 10:25:34;;;;;;;9.48;6.75;;;;;;;;;;5032317;28;20087;-83
2021/09/01 10:28:18;;;;;;;9.00;6.60;;;;;;;;;;5030326;28;20021;-83
2021/09/01 10:31:02;;;;;;;8.13;7.25;;;;;;;;;;5031119;28;20021;-83
2021/09/01 10:33:34;;;;;;;12.60;6.25;;;;;;;;;;5037493;28;20569;-83
2021/09/01 10:35:59;;;;;;;7.43;5.65;;;;;;;;;;5036758;28;20036;-83
2021/09/01 10:38:31;;;;;;;8.93;5.57;;;;;;;;;;5035625;28;20472;-84
2021/09/01 10:41:03;;;;;;;9.23;5.60;;;;;;;;;;5035189;28;20295;-84
2021/09/01 10:43:28;;;;;;;6.95;5.65;;;;;;;;;;5035092;28;20033;-84
2021/09/01 10:45:54;;;;;;;7.13;5.00;;;;;;;;;;5033977;28;20044;-83
2021/09/01 10:48:19;;;;;;;6.97;5.15;;;;;;;;;;5033310;28;20381;-84
2021/09/01 10:50:46;;;;;;;11.10;6.03;;;;;;;;;;5032617;28;20028;-83
2021/09/01 10:53:11;;;;;;;8.52;5.82;;;;;;;;;;5032276;28;20891;-83
2021/09/01 10:56:06;;;;;;;9.48;6.85;;;;;;;;;;5032468;28;20100;-83
2021/09/01 10:58:33;;;;;;;10.00;6.05;;;;;;;;;;5026762;28;20037;-84
2021/09/01 11:01:18;;;;;;;9.23;6.55;;;;;;;;;;5030498;28;20026;-84
2021/09/01 11:03:49;;;;;;;6.88;5.57;;;;;;;;;;5030646;28;20040;-83
2021/09/01 11:06:14;;;;;;;8.93;5.47;;;;;;;;;;5031450;28;20025;-83
2021/09/01 11:08:58;;;;;;;7.20;5.13;;;;;;;;;;5030991;28;20029;-83
2021/09/01 11:11:35;;;;;;;9.73;5.57;;;;;;;;;;5029568;28;20026;-83
2021/09/01 11:14:00;;;;;;;7.40;5.60;;;;;;;;;;5030354;28;20107;-84
2021/09/01 11:16:25;;;;;;;7.67;5.70;;;;;;;;;;5030062;28;20084;-83
2021/09/01 11:19:00;;;;;;;9.80;5.63;;;;;;;;;;5032200;28;20040;-84
2021/09/01 11:21:26;;;;;;;5.68;5.10;;;;;;;;;;5037253;28;20021;-84
2021/09/01 11:23:52;;;;;;;12.60;5.53;;;;;;;;;;5033224;28;20029;-84
2021/09/01 11:26:17;;;;;;;8.35;5.20;;;;;;;;;;5030952;28;20025;-84
2021/09/01 11:28:47;;;;;;;8.10;5.50;;;;;;;;;;5039101;28;20476;-83
2021/09/01 11:31:21;;;;;;;5.70;4.80;;;;;;;;;;5041190;28;20029;-84
2021/09/01 11:33:49;;;;;;;6.75;4.50;;;;;;;;;;5033744;28;20029;-84
2021/09/01 11:36:14;;;;;;;6.60;5.03;;;;;;;;;;5029761;28;20022;-83
2021/09/01 11:38:46;;;;;;;8.83;5.03;;;;;;;;;;5036959;28;20033;-83
2021/09/01 11:41:11;;;;;;;6.68;4.80;;;;;;;;;;5037227;28;20260;-84
2021/09/01 11:43:36;;;;;;;8.50;4.47;;;;;;;;;;5043954;28;20032;-83
2021/09/01 11:46:01;;;;;;;10.83;4.90;;;;;;;;;;5031218;28;20025;-84
2021/09/01 11:48:37;;;;;;;11.70;5.80;;;;;;;;;;5044786;28;20399;-84
2021/09/01 11:51:02;;;;;;;6.10;4.63;;;;;;;;;;5038769;28;20350;-83
2021/09/01 11:53:27;;;;;;;6.10;4.37;;;;;;;;;;5038133;28;20104;-84
2021/09/01 11:55:53;;;;;;;5.33;4.43;;;;;;;;;;5048098;28;20307;-84
2021/09/01 11:58:18;;;;;;;5.67;4.80;;;;;;;;;;5046438;28;20025;-83
2021/09/01 12:00:44;;;;;;;7.13;4.72;;;;;;;;;;5035225;28;20032;-83
2021/09/01 12:03:10;;;;;;;6.32;4.20;;;;;;;;;;5049098;28;20056;-83
2021/09/01 12:05:36;;;;;;;6.90;4.90;;;;;;;;;;5033416;28;20025;-84
2021/09/01 12:08:02;;;;;;;8.32;4.38;;;;;;;;;;5045115;28;20037;-84
2021/09/01 12:10:29;;;;;;;10.30;4.20;;;;;;;;;;5028654;28;20092;-83
2021/09/01 12:13:01;;;;;;;5.28;4.70;;;;;;;;;;5027269;28;20705;-84
2021/09/01 12:15:29;;;;;;;5.88;4.20;;;;;;;;;;5041707;28;20517;-84
2021/09/01 12:18:05;;;;;;;5.68;4.55;;;;;;;;;;5033308;28;20468;-83
2021/09/01 12:20:34;;;;;;;7.78;4.88;;;;;;;;;;5030475;28;20080;-84
2021/09/01 12:22:59;;;;;;;6.20;4.47;;;;;;;;;;5038923;28;20048;-84
2021/09/01 12:25:24;;;;;;;7.10;4.65;;;;;;;;;;5034414;28;20025;-83
2021/09/01 12:27:59;;;;;;;7.53;5.35;;;;;;;;;;5044801;28;20786;-83
2021/09/01 12:30:28;;;;;;;7.88;5.03;;;;;;;;;;5042113;28;20448;-83
2021/09/01 12:32:58;;;;;;;8.05;5.20;;;;;;;;;;5026518;28;20017;-84
2021/09/01 12:35:25;;;;;;;10.63;5.63;;;;;;;;;;5040808;28;20023;-83
2021/09/01 12:37:52;;;;;;;7.97;5.70;;;;;;;;;;5031561;28;20025;-84
2021/09/01 12:40:18;;;;;;;6.28;4.75;;;;;;;;;;5015329;28;20074;-83
2021/09/01 12:42:44;;;;;;;6.03;4.90;;;;;;;;;;5040388;28;20053;-84
2021/09/01 12:45:09;;;;;;;10.43;5.38;;;;;;;;;;5029225;28;20287;-84
2021/09/01 12:47:35;;;;;;;13.23;4.80;;;;;;;;;;5018924;28;20025;-84
2021/09/01 12:50:01;;;;;;;7.70;5.13;;;;;;;;;;5047866;28;20029;-84
2021/09/01 12:52:27;;;;;;;7.65;4.80;;;;;;;;;;5035970;28;20366;-84
2021/09/01 12:54:53;;;;;;;8.75;5.30;;;;;;;;;;5040809;28;20024;-84
2021/09/01 12:57:19;;;;;;;7.35;4.97;;;;;;;;;;5030410;28;20385;-84
2021/09/01 12:59:44;;;;;;;5.38;4.57;;;;;;;;;;5044720;28;20083;-84
2021/09/01 13:02:09;;;;;;;8.65;5.18;;;;;;;;;;5048039;28;20512;-84
2021/09/01 13:04:35;;;;;;;8.30;4.65;;;;;;;;;;5031249;28;20035;-84
2021/09/01 13:07:00;;;;;;;6.97;4.95;;;;;;;;;;5030260;28;20079;-84
2021/09/01 13:09:25;;;;;;;8.10;5.82;;;;;;;;;;5028710;28;20026;-84
2021/09/01 13:11:51;;;;;;;7.35;4.82;;;;;;;;;;5046633;28;20057;-84
2021/09/01 13:14:17;;;;;;;6.65;4.93;;;;;;;;;;5034911;28;20473;-84
2021/09/01 13:16:45;;;;;;;10.70;5.10;;;;;;;;;;5042434;28;20053;-85
2021/09/01 13:19:11;;;;;;;8.43;4.90;;;;;;;;;;5041721;28;20259;-84
2021/09/01 13:21:36;;;;;;;14.73;5.80;;;;;;;;;;5035605;28;20055;-84
2021/09/01 13:24:01;;;;;;;10.52;4.88;;;;;;;;;;5046166;28;20052;-84
2021/09/01 13:26:27;;;;;;;7.30;5.18;;;;;;;;;;5030158;28;20021;-85
2021/09/01 13:28:52;;;;;;;9.43;4.93;;;;;;;;;;5029807;28;20029;-84
2021/09/01 13:31:17;;;;;;;13.00;5.37;;;;;;;;;;5041713;28;20096;-84
2021/09/01 13:33:42;;;;;;;10.50;5.20;;;;;;;;;;5035389;28;20033;-84
2021/09/01 13:36:08;;;;;;;11.93;5.85;;;;;;;;;;5031285;28;20032;-84
2021/09/01 13:38:33;;;;;;;11.85;5.43;;;;;;;;;;5043864;28;20018;-84
2021/09/01 13:40:58;;;;;;;9.90;5.32;;;;;;;;;;5029980;28;20082;-84
2021/09/01 13:43:24;;;;;;;7.82;4.53;;;;;;;;;;5027984;28;20075;-84
2021/09/01 13:45:49;;;;;;;12.20;5.00;;;;;;;;;;5044450;28;20025;-84
2021/09/01 13:48:14;;;;;;;5.17;4.20;;;;;;;;;;5029674;28;20040;-85
2021/09/01 13:50:39;;;;;;;6.63;4.57;;;;;;;;;;5036945;28;20045;-85
2021/09/01 13:53:06;;;;;;;8.60;4.60;;;;;;;;;;5038914;28;20822;-84
2021/09/01 13:55:31;;;;;;;7.05;4.15;;;;;;;;;;5027963;28;20022;-85
2021/09/01 13:57:59;;;;;;;8.50;4.35;;;;;;;;;;5044702;28;20413;-84
2021/09/01 14:00:31;;;;;;;9.13;4.53;;;;;;;;;;5033948;28;20538;-84
2021/09/01 14:02:56;;;;;;;8.98;4.20;;;;;;;;;;5038971;28;20025;-85
2021/09/01 14:05:22;;;;;;;6.57;3.88;;;;;;;;;;5040340;28;20817;-84
2021/09/01 14:07:47;;;;;;;6.63;3.90;;;;;;;;;;5032894;28;20481;-84
2021/09/01 14:10:12;;;;;;;10.87;4.73;;;;;;;;;;5044020;28;20092;-85
2021/09/01 14:12:39;;;;;;;16.92;4.80;;;;;;;;;;5028826;28;20025;-84
2021/09/01 14:15:04;;;;;;;4.97;4.18;;;;;;;;;;5038482;28;20811;-84
2021/09/01 14:17:30;;;;;;;16.42;4.40;;;;;;;;;;5033641;28;20060;-85
2021/09/01 14:19:55;;;;;;;6.95;4.45;;;;;;;;;;5045374;28;20096;-84
2021/09/01 14:22:20;;;;;;;12.80;4.27;;;;;;;;;;5042491;28;20452;-84
2021/09/01 14:24:45;;;;;;;7.80;4.03;;;;;;;;;;5035923;28;20078;-84